North Sydney, Canada
Current Conditions -  °F | °C
As of 9:00 PM on Friday 19 Dec 2014 (Local Time) from CYQY Reporting Station
Snow Showers Snow Showers  
Wind Chill: 21°   Ceiling: 1800
Heat Index: 32°   Visibility: 3mi
Dew Point: 30°   Wind: 17mph
Humidity: 93%   Direction: 350°N
Pressure: 29.79"   Gusts: 24mph
Location:  46.21°N, 60.25°W
Report Text: CYQY 200100Z 35015G21KT 3SM -SHSN SCT009 OVC018 00/M01 A2979 RMK ST4SC4 PRESRR SLP089
Loading
Personal Weather Stations






























Interactive Weather Map New forecast layout! Learn more

10-Day Weather Forecast

Advertisements
Track Severe Weather on mobile